This is the latest recevied weather packets stored in our database for station/object KM5VY. If no packets are shown the sender has not sent any weather packets the latest 10 day(s).
| Time | Temp. | Humidity | Pressure | Rain* | Wind** | Luminosity | Snow |
|---|---|---|---|---|---|---|---|
| 1777215529 | 12.78° C | 38% | 1010.5 hPa | 0 mm | - | - | - |
| 1777214928 | 11.67° C | 39% | 1009.8 hPa | 0 mm | - | - | - |
| 1777213124 | 9.44° C | 43% | 1011.2 hPa | 0 mm | - | - | - |
| 1777212524 | 8.33° C | 44% | 1011.2 hPa | 0 mm | - | - | - |
| 1777211923 | 7.22° C | 46% | 1011.5 hPa | 0 mm | - | - | - |
| 1777211321 | 6.11° C | 48% | 1011.2 hPa | 0 mm | - | - | - |
| 1777210120 | 2.78° C | 50% | 1011.5 hPa | 0 mm | - | - | - |
| 1777209518 | 2.22° C | 47% | 1011.5 hPa | 0 mm | - | - | - |
| 1777208918 | 2.22° C | 46% | 1011.5 hPa | 0 mm | - | - | - |
| 1777208316 | 1.67° C | 46% | 1011.5 hPa | 0 mm | - | - | - |
| 1777207115 | 1.67° C | 46% | 1011.2 hPa | 0 mm | - | - | - |
| 1777206513 | 1.67° C | 46% | 1011.2 hPa | 0 mm | - | - | - |
| 1777205913 | 1.67° C | 46% | 1011.2 hPa | 0 mm | - | - | - |
| 1777205579 | 1.67° C | 46% | 1011.2 hPa | 0 mm | - | - | - |
| 1777205311 | 1.67° C | 46% | 1011.2 hPa | 0 mm | - | - | - |
| 1777204710 | 1.67° C | 45% | 1011.2 hPa | 0 mm | - | - | - |
| 1777204110 | 2.22° C | 45% | 1011.2 hPa | 0 mm | - | - | - |
| 1777203731 | 2.22° C | 45% | 1011.2 hPa | 0 mm | - | - | - |
| 1777203508 | 2.22° C | 45% | 1011.2 hPa | 0 mm | - | - | - |
| 1777202907 | 2.22° C | 44% | 1011.2 hPa | 0 mm | - | - | - |
| 1777202307 | 2.22° C | 44% | 1011.2 hPa | 0 mm | - | - | - |
| 1777201705 | 2.22° C | 44% | 1011.2 hPa | 0 mm | - | - | - |
| 1777201105 | 2.78° C | 43% | 1011.2 hPa | 0 mm | - | - | - |
| 1777200503 | 2.78° C | 43% | 1011.2 hPa | 0 mm | - | - | - |
| 1777199902 | 2.78° C | 43% | 1011.5 hPa | 0 mm | - | - | - |
* Rain latest hour (hover to see other rain measurements)
** Current wind speed in m/s (hover to see current wind gust speed)